Terminal Aerodrome Forecast
Issued by NWS Grand Forks, ND

Home | Current Version | Previous Version | Graphics & Text | Print | Product List | Glossary On
Versions: 1 2 3 4 5 6 7 8 9 10 11 12 13 14
000
FTUS43 KFGF 010520
TAFGFK
TAF
KGFK 010520Z 0106/0206 VRB06KT P6SM SKC
     FM011600 24008KT P6SM SKC
     FM020000 29005KT P6SM SCT250=

USA.gov is the U.S. government's official web portal to all federal, state and local government web resources and services.